createdAt,value
2018-04-14T00:02:04.734Z,100229.80
2018-04-14T00:04:33.690Z,100235.30
2018-04-14T00:07:02.844Z,100228.59
2018-04-14T00:09:31.813Z,100235.55
2018-04-14T00:12:12.853Z,100223.56
2018-04-14T00:14:41.987Z,100226.11
2018-04-14T00:17:10.951Z,100232.70
2018-04-14T00:19:40.067Z,100228.10
2018-04-14T00:22:09.406Z,100233.92
2018-04-14T00:24:38.434Z,100231.75
2018-04-14T00:27:07.732Z,100231.25
2018-04-14T00:29:36.724Z,100234.39
2018-04-14T00:32:05.685Z,100235.67
2018-04-14T00:34:34.830Z,100234.33
2018-04-14T00:37:03.811Z,100233.59
2018-04-14T00:39:33.217Z,100243.05
2018-04-14T00:42:02.257Z,100240.59
2018-04-14T00:44:31.373Z,100247.13
2018-04-14T00:47:00.829Z,100245.44
2018-04-14T00:49:29.934Z,100246.10
2018-04-14T00:51:59.094Z,100242.45
2018-04-14T00:54:28.198Z,100253.89
2018-04-14T00:56:57.969Z,100255.08
2018-04-14T00:59:26.976Z,100257.42
2018-04-14T01:01:56.267Z,100259.88
2018-04-14T01:04:25.071Z,100258.88
2018-04-14T01:06:54.106Z,100259.05
2018-04-14T01:09:23.217Z,100258.22
2018-04-14T01:11:52.732Z,100257.23
2018-04-14T01:14:21.882Z,100259.17
2018-04-14T01:16:50.993Z,100269.14
2018-04-14T01:19:20.247Z,100274.70
2018-04-14T01:21:49.251Z,100269.16
2018-04-14T01:24:18.266Z,100268.95
2018-04-14T01:26:47.785Z,100274.60
2018-04-14T01:29:17.223Z,100271.52
2018-04-14T01:31:46.605Z,100266.94
2018-04-14T01:34:15.747Z,100266.05
2018-04-14T01:36:44.888Z,100264.19
2018-04-14T01:39:14.068Z,100270.86
2018-04-14T01:41:42.981Z,100263.30
2018-04-14T01:44:11.971Z,100273.48
2018-04-14T01:46:41.229Z,100277.34
2018-04-14T01:49:10.694Z,100277.59
2018-04-14T01:51:40.009Z,100277.93
2018-04-14T01:54:09.055Z,100285.15
2018-04-14T01:56:38.118Z,100293.73
2018-04-14T01:59:07.335Z,100295.59
2018-04-14T02:01:36.680Z,100294.05
2018-04-14T02:04:05.715Z,100304.45
2018-04-14T02:06:35.037Z,100317.64
2018-04-14T02:09:03.719Z,100317.32
2018-04-14T02:29:11.582Z,100345.54
2018-04-14T02:31:40.259Z,100348.42
2018-04-14T02:34:09.254Z,100355.15
2018-04-14T02:36:38.274Z,100359.53
2018-04-14T02:39:07.797Z,100368.38
2018-04-14T02:41:36.783Z,100368.11
2018-04-14T02:44:05.790Z,100371.93
2018-04-14T02:46:34.737Z,100372.89
2018-04-14T02:49:03.761Z,100378.34
2018-04-14T02:51:33.084Z,100376.05
2018-04-14T02:54:02.047Z,100380.94
2018-04-14T02:56:31.014Z,100382.99
2018-04-14T02:59:00.023Z,100379.86
2018-04-14T03:01:29.122Z,100383.56
2018-04-14T03:03:58.070Z,100378.53
2018-04-14T03:06:27.066Z,100386.69
2018-04-14T03:08:56.014Z,100384.62
2018-04-14T03:11:25.066Z,100386.64
2018-04-14T03:13:54.065Z,100389.78
2018-04-14T03:16:23.010Z,100399.47
2018-04-14T03:18:51.945Z,100394.06
2018-04-14T03:21:20.943Z,100397.68
2018-04-14T03:23:50.254Z,100399.94
2018-04-14T03:26:19.224Z,100398.73
2018-04-14T03:28:48.226Z,100398.98
2018-04-14T03:31:17.226Z,100408.62
2018-04-14T03:33:46.334Z,100409.44
2018-04-14T03:36:15.689Z,100417.89
2018-04-14T03:38:44.652Z,100415.23
2018-04-14T03:41:13.630Z,100422.09
2018-04-14T03:43:42.718Z,100420.88
2018-04-14T03:46:11.663Z,100425.83
2018-04-14T03:48:40.881Z,100419.44
2018-04-14T03:51:09.886Z,100416.19
2018-04-14T03:53:38.837Z,100419.58
2018-04-14T03:56:07.796Z,100416.80
2018-04-14T03:58:36.881Z,100424.44
2018-04-14T04:01:05.847Z,100434.80
2018-04-14T04:03:34.853Z,100446.50
2018-04-14T04:06:03.879Z,100427.84
2018-04-14T04:08:33.120Z,100431.91
2018-04-14T04:11:02.072Z,100437.82
2018-04-14T04:13:31.125Z,100439.55
2018-04-14T04:16:00.078Z,100439.23
2018-04-14T04:18:40.094Z,100436.77
2018-04-14T04:21:20.087Z,100454.30
2018-04-14T04:24:00.475Z,100460.59
2018-04-14T04:26:29.432Z,100473.62
2018-04-14T04:28:58.378Z,100474.86
2018-04-14T04:31:27.419Z,100468.30
2018-04-14T04:33:56.358Z,100458.84
2018-04-14T04:36:25.293Z,100465.89
2018-04-14T04:38:54.371Z,100476.26
2018-04-14T04:41:23.610Z,100478.48
2018-04-14T04:43:52.569Z,100480.87
2018-04-14T04:46:21.612Z,100489.53
2018-04-14T04:48:50.638Z,100489.92
2018-04-14T04:51:19.798Z,100492.83
2018-04-14T04:53:48.803Z,100503.58
2018-04-14T04:56:17.751Z,100507.52
2018-04-14T04:58:46.707Z,100511.75
2018-04-14T05:01:15.714Z,100521.59
2018-04-14T05:03:44.686Z,100522.80
2018-04-14T05:06:13.694Z,100522.88
2018-04-14T05:08:42.762Z,100522.83
2018-04-14T05:11:11.709Z,100495.18
2018-04-14T05:13:40.641Z,100498.33
2018-04-14T05:16:09.654Z,100501.70
2018-04-14T05:18:38.907Z,100507.95
2018-04-14T05:21:07.847Z,100511.04
2018-04-14T05:23:36.695Z,100515.79
2018-04-14T05:26:05.695Z,100526.67
2018-04-14T05:28:34.630Z,100541.44
2018-04-14T05:31:03.676Z,100541.17
2018-04-14T05:33:32.802Z,100543.05
2018-04-14T05:36:01.777Z,100551.81
2018-04-14T05:38:30.796Z,100542.88
2018-04-14T05:41:00.002Z,100548.14
2018-04-14T05:43:28.978Z,100553.60
2018-04-14T05:45:58.082Z,100553.55
2018-04-14T05:48:27.324Z,100547.61
2018-04-14T05:50:56.447Z,100541.58
2018-04-14T05:53:25.924Z,100547.89
2018-04-14T05:55:54.920Z,100541.72
2018-04-14T05:58:23.927Z,100541.97
2018-04-14T06:00:52.939Z,100552.31
2018-04-14T06:03:21.919Z,100560.24
2018-04-14T06:05:50.859Z,100553.80
2018-04-14T06:08:20.030Z,100556.26
2018-04-14T06:10:49.135Z,100558.49
2018-04-14T06:13:18.153Z,100565.70
2018-04-14T06:15:47.130Z,100576.89
2018-04-14T06:24:22.908Z,100581.10
2018-04-14T06:26:55.563Z,100584.16
2018-04-14T06:29:26.449Z,100588.31
2018-04-14T06:31:57.108Z,100596.61
2018-04-14T06:34:28.916Z,100602.70
2018-04-14T06:36:59.914Z,100607.98
2018-04-14T06:39:31.039Z,100609.38
2018-04-14T06:42:01.793Z,100608.25
2018-04-14T06:44:34.901Z,100617.44
2018-04-14T06:47:04.456Z,100624.50
2018-04-14T06:49:35.272Z,100630.84
2018-04-14T06:52:06.231Z,100646.94
2018-04-14T06:54:36.734Z,100633.12
2018-04-14T06:57:07.994Z,100628.93
2018-04-14T06:59:38.862Z,100637.70
2018-04-14T07:02:09.971Z,100645.12
2018-04-14T07:04:40.977Z,100641.39
2018-04-14T07:07:11.982Z,100651.59
2018-04-14T07:09:42.927Z,100650.92
2018-04-14T07:12:13.618Z,100650.97
2018-04-14T07:14:44.699Z,100645.64
2018-04-14T07:17:15.772Z,100653.73
2018-04-14T07:19:46.779Z,100666.41
2018-04-14T07:22:19.182Z,100667.25
2018-04-14T07:24:49.657Z,100676.84
2018-04-14T07:27:20.484Z,100675.16
2018-04-14T07:29:51.238Z,100675.59
2018-04-14T07:32:22.098Z,100692.94
2018-04-14T07:34:58.494Z,100693.28
2018-04-14T07:37:28.263Z,100683.68
2018-04-14T07:39:57.085Z,100689.06
2018-04-14T07:42:26.137Z,100692.23
2018-04-14T07:44:57.009Z,100698.09
2018-04-14T07:47:27.821Z,100694.91
2018-04-14T07:49:58.854Z,100705.84
2018-04-14T07:52:29.901Z,100707.95
2018-04-14T07:55:00.884Z,100708.95
2018-04-14T07:57:31.497Z,100715.26
2018-04-14T08:00:02.783Z,100721.37
2018-04-14T08:02:33.788Z,100723.00
2018-04-14T08:05:04.904Z,100723.41
2018-04-14T08:07:35.899Z,100723.86
2018-04-14T08:10:07.310Z,100730.95
2018-04-14T08:12:38.096Z,100725.04
2018-04-14T08:15:08.977Z,100731.26
2018-04-14T08:17:39.825Z,100732.20
2018-04-14T08:20:10.979Z,100734.70
2018-04-14T08:22:41.630Z,100738.27
2018-04-14T08:25:12.617Z,100742.80
2018-04-14T08:27:43.742Z,100743.71
2018-04-14T08:30:14.829Z,100736.83
2018-04-14T08:32:45.814Z,100729.41
2018-04-14T08:35:16.826Z,100738.00
2018-04-14T08:37:52.858Z,100739.45
2018-04-14T08:40:21.856Z,100740.55
2018-04-14T08:42:50.819Z,100742.61
2018-04-14T08:45:21.485Z,100759.05
2018-04-14T08:47:52.313Z,100760.66
2018-04-14T08:50:22.824Z,100751.92
2018-04-14T08:52:53.805Z,100756.83
2018-04-14T08:55:24.788Z,100761.53
2018-04-14T08:57:55.820Z,100767.87
2018-04-14T09:00:26.818Z,100760.91
2018-04-14T09:02:57.835Z,100754.27
2018-04-14T09:05:28.834Z,100760.83
2018-04-14T09:07:59.858Z,100753.09
2018-04-14T09:10:30.816Z,100757.74
2018-04-14T09:13:01.860Z,100755.80
2018-04-14T09:15:32.838Z,100759.25
2018-04-14T09:18:03.899Z,100759.88
2018-04-14T09:20:34.717Z,100758.41
2018-04-14T09:23:05.753Z,100773.06
2018-04-14T09:25:36.943Z,100766.43
2018-04-14T09:28:07.860Z,100772.12
2018-04-14T09:30:38.861Z,100772.69
2018-04-14T09:33:09.936Z,100777.26
2018-04-14T09:35:40.874Z,100774.35
2018-04-14T09:38:11.944Z,100784.44
2018-04-14T09:40:42.961Z,100780.73
2018-04-14T09:43:14.057Z,100775.45
2018-04-14T09:45:44.874Z,100781.02
2018-04-14T09:48:16.051Z,100790.14
2018-04-14T09:50:46.851Z,100798.53
2018-04-14T09:53:17.874Z,100787.38
2018-04-14T09:55:48.850Z,100788.48
2018-04-14T09:58:19.921Z,100786.55
2018-04-14T10:00:56.170Z,100796.41
2018-04-14T10:03:25.080Z,100799.56
2018-04-14T10:05:54.121Z,100796.41
2018-04-14T10:08:24.576Z,100792.32
2018-04-14T10:10:55.395Z,100796.06
2018-04-14T10:13:25.976Z,100794.00
2018-04-14T10:15:56.922Z,100791.88
2018-04-14T10:18:27.986Z,100792.64
2018-04-14T10:20:58.912Z,100789.83
2018-04-14T10:23:29.976Z,100793.33
2018-04-14T10:26:01.066Z,100791.19
2018-04-14T10:28:31.950Z,100786.16
2018-04-14T10:31:02.757Z,100788.64
2018-04-14T10:33:33.852Z,100788.11
2018-04-14T10:36:04.979Z,100786.54
2018-04-14T10:38:35.798Z,100788.14
2018-04-14T10:41:06.644Z,100785.14
2018-04-14T10:43:37.805Z,100783.15
2018-04-14T10:46:09.055Z,100784.25
2018-04-14T10:48:40.745Z,100775.09
2018-04-14T10:51:11.455Z,100787.97
2018-04-14T10:53:41.980Z,100777.61
2018-04-14T10:56:12.734Z,100787.80
2018-04-14T10:58:43.712Z,100786.01
2018-04-14T11:01:14.758Z,100784.47
2018-04-14T11:03:45.748Z,100786.80
2018-04-14T11:06:16.962Z,100785.74
2018-04-14T11:08:47.868Z,100789.61
2018-04-14T11:11:18.924Z,100788.92
2018-04-14T11:13:49.925Z,100788.34
2018-04-14T11:16:20.963Z,100786.50
2018-04-14T11:18:51.825Z,100793.73
2018-04-14T11:21:22.745Z,100795.36
2018-04-14T11:23:53.718Z,100789.13
2018-04-14T11:26:27.275Z,100790.86
2018-04-14T11:29:01.269Z,100795.75
2018-04-14T11:31:30.400Z,100799.23
2018-04-14T11:34:23.413Z,100794.65
2018-04-14T11:36:52.442Z,100800.89
2018-04-14T11:39:21.610Z,100791.38
2018-04-14T11:41:50.602Z,100783.70
2018-04-14T11:47:13.133Z,100786.63
2018-04-14T11:49:42.357Z,100783.93
2018-04-14T11:52:11.369Z,100786.72
2018-04-14T11:54:40.377Z,100795.12
2018-04-14T11:57:31.345Z,100788.51
2018-04-14T12:00:00.423Z,100784.95
2018-04-14T12:02:29.758Z,100786.81
2018-04-14T12:04:58.763Z,100777.13
2018-04-14T12:07:27.905Z,100779.91
2018-04-14T12:09:56.907Z,100776.97
2018-04-14T12:12:25.842Z,100786.81
2018-04-14T12:14:54.867Z,100789.91
2018-04-14T12:17:25.089Z,100791.17
2018-04-14T12:19:54.277Z,100778.84
2018-04-14T12:22:23.235Z,100785.67
2018-04-14T12:24:52.165Z,100790.98
2018-04-14T12:27:21.200Z,100784.31
2018-04-14T12:29:50.153Z,100785.02
2018-04-14T12:32:19.359Z,100780.89
2018-04-14T12:34:48.382Z,100774.30
2018-04-14T12:42:57.461Z,100776.36
2018-04-14T12:45:26.910Z,100772.05
2018-04-14T12:47:55.971Z,100767.55
2018-04-14T12:50:24.946Z,100758.50
2018-04-14T12:52:53.965Z,100759.56
2018-04-14T12:55:22.976Z,100759.37
2018-04-14T12:57:51.962Z,100762.98
2018-04-14T13:00:20.943Z,100749.81
2018-04-14T13:02:49.714Z,100743.53
2018-04-14T13:05:18.771Z,100747.73
2018-04-14T13:07:47.752Z,100752.44
2018-04-14T13:10:16.800Z,100745.97
2018-04-14T13:12:46.609Z,100754.17
2018-04-14T13:15:15.903Z,100749.69
2018-04-14T13:17:45.094Z,100754.95
2018-04-14T13:20:14.051Z,100755.53
2018-04-14T13:22:43.092Z,100745.66
2018-04-14T13:25:12.030Z,100747.73
2018-04-14T13:27:40.998Z,100743.77
2018-04-14T13:30:10.067Z,100751.27
2018-04-14T13:32:39.444Z,100742.41
2018-04-14T13:35:08.675Z,100742.20
2018-04-14T13:37:37.860Z,100744.55
2018-04-14T13:40:07.086Z,100743.25
2018-04-14T13:42:36.066Z,100737.02
2018-04-14T13:45:05.314Z,100735.12
2018-04-14T13:47:34.629Z,100739.75
2018-04-14T13:50:03.489Z,100732.21
2018-04-14T13:52:32.571Z,100733.37
2018-04-14T13:55:02.078Z,100729.27
2018-04-14T13:57:31.086Z,100734.92
2018-04-14T14:00:00.189Z,100735.95
2018-04-14T14:02:29.028Z,100737.98
2018-04-14T14:04:58.468Z,100733.88
2018-04-14T14:07:29.739Z,100728.41
2018-04-14T14:09:58.773Z,100736.52
2018-04-14T14:12:32.788Z,100737.15
2018-04-14T14:15:01.783Z,100727.43
2018-04-14T14:17:33.485Z,100727.12
2018-04-14T14:20:02.514Z,100720.09
2018-04-14T14:22:33.366Z,100732.48
2018-04-14T14:25:03.948Z,100728.90
2018-04-14T14:27:35.018Z,100719.33
2018-04-14T14:30:05.579Z,100719.55
2018-04-14T14:32:36.659Z,100720.14
2018-04-14T14:35:07.628Z,100715.58
2018-04-14T15:35:35.596Z,100693.89
2018-04-14T15:38:04.842Z,100686.29
2018-04-14T15:40:34.518Z,100700.73
2018-04-14T15:43:05.109Z,100694.66
2018-04-14T15:45:35.827Z,100690.70
2018-04-14T15:48:06.878Z,100694.48
2018-04-14T15:50:37.858Z,100689.23
2018-04-14T15:53:08.920Z,100688.56
2018-04-14T15:55:43.234Z,100695.70
2018-04-14T15:58:12.236Z,100694.29
2018-04-14T16:00:42.262Z,100693.02
2018-04-14T16:03:13.044Z,100691.64
2018-04-14T16:05:44.059Z,100687.70
2018-04-14T16:08:14.959Z,100688.78
2018-04-14T16:10:45.957Z,100692.96
2018-04-14T16:13:16.918Z,100692.87
2018-04-14T16:15:47.914Z,100692.09
2018-04-14T16:18:18.972Z,100688.45
2018-04-14T16:20:50.114Z,100688.00
2018-04-14T16:23:21.130Z,100687.06
2018-04-14T16:25:51.927Z,100695.58
2018-04-14T16:28:23.010Z,100688.34
2018-04-14T16:30:53.921Z,100694.70
2018-04-14T16:33:26.438Z,100694.66
2018-04-14T16:35:57.520Z,100693.46
2018-04-14T16:38:27.489Z,100694.47
2018-04-14T16:40:58.194Z,100689.27
2018-04-14T16:43:29.002Z,100689.76
2018-04-14T16:45:59.991Z,100686.01
2018-04-14T16:48:31.071Z,100688.77
2018-04-14T16:51:02.005Z,100693.79
2018-04-14T16:53:31.932Z,100686.33
2018-04-14T16:56:02.606Z,100696.16
2018-04-14T16:58:33.563Z,100699.02
2018-04-14T17:01:04.304Z,100693.14
2018-04-14T17:03:35.385Z,100695.80
2018-04-14T17:06:06.371Z,100693.42
2018-04-14T17:08:38.122Z,100691.95
2018-04-14T17:11:08.709Z,100696.09
2018-04-14T17:13:39.431Z,100694.29
2018-04-14T17:16:10.342Z,100697.78
2018-04-14T17:18:41.387Z,100691.83
2018-04-14T17:21:12.475Z,100693.91
2018-04-14T17:23:43.429Z,100703.89
2018-04-14T17:26:14.278Z,100704.54
2018-04-14T17:28:46.513Z,100708.64
2018-04-14T17:31:17.962Z,100713.45
2018-04-14T17:33:48.794Z,100719.15
2018-04-14T17:36:19.530Z,100715.59
2018-04-14T17:38:50.225Z,100721.98
2018-04-14T17:41:21.340Z,100725.50
2018-04-14T17:43:52.145Z,100723.80
2018-04-14T17:46:23.010Z,100731.41
2018-04-14T17:48:54.047Z,100730.27
2018-04-14T17:51:24.996Z,100728.86
2018-04-14T17:53:56.062Z,100735.79
2018-04-14T17:56:26.948Z,100743.16
2018-04-14T17:58:57.993Z,100749.80
2018-04-14T18:01:29.395Z,100756.09
2018-04-14T18:04:00.005Z,100757.42
2018-04-14T18:06:30.903Z,100755.50
2018-04-14T18:09:02.031Z,100754.97
2018-04-14T18:11:32.932Z,100762.23
2018-04-14T18:14:24.009Z,100764.45
2018-04-14T18:16:53.501Z,100768.08
2018-04-14T18:19:22.771Z,100764.45
2018-04-14T18:21:51.671Z,100775.76
2018-04-14T18:24:20.754Z,100780.75
2018-04-14T18:26:50.750Z,100779.77
2018-04-14T18:29:19.923Z,100766.83
2018-04-14T18:31:49.780Z,100786.90
2018-04-14T18:34:18.836Z,100792.66
2018-04-14T18:36:48.008Z,100788.50
2018-04-14T18:39:17.158Z,100791.64
2018-04-14T18:41:46.147Z,100792.02
2018-04-14T18:44:15.898Z,100788.30
2018-04-14T18:46:46.410Z,100786.95
2018-04-14T18:49:17.072Z,100791.50
2018-04-14T18:51:47.021Z,100794.09
2018-04-14T18:54:18.672Z,100790.58
2018-04-14T18:56:49.709Z,100786.53
2018-04-14T18:59:21.369Z,100778.73
2018-04-14T19:01:52.037Z,100781.44
2018-04-14T19:04:22.659Z,100786.33
2018-04-14T19:06:54.154Z,100776.06
2018-04-14T19:09:24.980Z,100778.12
2018-04-14T19:11:56.031Z,100786.52
2018-04-14T19:14:26.029Z,100790.47
2018-04-14T19:16:57.710Z,100787.67
2018-04-14T19:19:28.359Z,100785.77
2018-04-14T19:21:59.260Z,100778.81
2018-04-14T19:24:30.419Z,100769.15
2018-04-14T19:26:59.939Z,100779.05
2018-04-14T19:29:32.166Z,100774.77
2018-04-14T19:32:01.110Z,100766.78
2018-04-14T19:34:30.433Z,100773.46
2018-04-14T19:36:59.541Z,100771.55
2018-04-14T19:39:28.687Z,100765.86
2018-04-14T19:41:57.646Z,100761.41
2018-04-14T19:44:26.641Z,100757.64
2018-04-14T19:46:55.746Z,100753.95
2018-04-14T19:49:26.837Z,100751.22
2018-04-14T19:51:55.922Z,100752.08
2018-04-14T19:54:24.880Z,100752.48
2018-04-14T19:56:53.826Z,100748.23
2018-04-14T19:59:22.849Z,100750.91
2018-04-14T20:01:51.833Z,100757.18
2018-04-14T20:04:20.798Z,100754.78
2018-04-14T20:06:49.689Z,100752.69
2018-04-14T20:09:18.661Z,100748.08
2018-04-14T20:11:47.603Z,100745.34
2018-04-14T20:14:16.682Z,100748.52
2018-04-14T20:16:45.629Z,100744.59
2018-04-14T20:19:14.910Z,100744.84
2018-04-14T20:21:44.218Z,100746.03
2018-04-14T20:24:13.319Z,100744.14
2018-04-14T20:26:42.590Z,100741.38
2018-04-14T20:29:11.652Z,100738.06
2018-04-14T20:31:40.691Z,100734.44
2018-04-14T20:34:09.841Z,100729.77
2018-04-14T20:36:39.226Z,100722.33
2018-04-14T20:39:08.195Z,100722.89
2018-04-14T20:41:37.506Z,100722.61
2018-04-14T20:44:06.625Z,100712.06
2018-04-14T20:46:35.581Z,100714.00
2018-04-14T20:49:04.570Z,100723.05
2018-04-14T20:51:35.064Z,100723.69
2018-04-14T20:54:04.202Z,100724.75
2018-04-14T20:56:33.441Z,100721.02
2018-04-14T20:59:02.535Z,100723.25
2018-04-14T21:01:31.786Z,100726.55
2018-04-14T21:04:01.060Z,100720.28
2018-04-14T21:06:30.097Z,100723.91
2018-04-14T21:08:59.347Z,100719.44
2018-04-14T21:11:28.832Z,100716.27
2018-04-14T21:13:57.898Z,100716.72
2018-04-14T21:16:27.325Z,100703.43
2018-04-14T21:18:56.917Z,100702.78
2018-04-14T21:21:26.589Z,100687.50
2018-04-14T21:23:55.554Z,100687.53
2018-04-14T21:26:24.251Z,100670.91
2018-04-14T21:28:53.679Z,100691.55
2018-04-14T21:31:23.418Z,100682.66
2018-04-14T21:33:53.083Z,100680.79
2018-04-14T21:36:24.143Z,100682.14
2018-04-14T21:38:53.128Z,100689.70
2018-04-14T21:41:24.788Z,100665.80
2018-04-14T21:43:55.814Z,100675.13
2018-04-14T21:46:26.621Z,100669.47
2018-04-14T21:48:57.423Z,100674.28
2018-04-14T21:51:27.978Z,100671.45
2018-04-14T21:54:02.023Z,100673.63
2018-04-14T21:56:32.668Z,100674.40
2018-04-14T21:59:02.166Z,100675.42
2018-04-14T22:01:31.973Z,100678.53
2018-04-14T22:04:01.446Z,100682.13
2018-04-14T22:06:32.089Z,100682.71
2018-04-14T22:09:03.670Z,100658.83
2018-04-14T22:11:36.134Z,100681.08
2018-04-14T22:14:06.802Z,100685.67
2018-04-14T22:16:38.040Z,100678.77
2018-04-14T22:19:08.586Z,100685.45
2018-04-14T22:21:40.290Z,100688.47
2018-04-14T22:24:13.063Z,100690.00
2018-04-14T22:26:47.426Z,100692.41
2018-04-14T22:29:16.504Z,100689.17
2018-04-14T22:31:45.550Z,100694.42
2018-04-14T22:34:14.485Z,100699.19
2018-04-14T22:36:43.509Z,100672.84
2018-04-14T22:39:14.298Z,100697.67
2018-04-14T22:41:44.828Z,100697.09
2018-04-14T22:44:15.487Z,100695.27
2018-04-14T22:46:47.163Z,100692.98
2018-04-14T22:49:18.286Z,100696.56
2018-04-14T22:51:49.381Z,100690.63
2018-04-14T22:54:20.348Z,100701.20
2018-04-14T22:56:52.208Z,100698.36
2018-04-14T22:59:22.946Z,100708.44
2018-04-14T23:01:53.592Z,100704.91
2018-04-14T23:04:24.455Z,100700.41
2018-04-14T23:06:54.470Z,100702.45
2018-04-14T23:09:25.440Z,100695.96
2018-04-14T23:11:54.459Z,100687.30
2018-04-14T23:14:25.005Z,100688.66
2018-04-14T23:16:56.747Z,100687.80
2018-04-14T23:19:27.321Z,100685.72
2018-04-14T23:21:58.367Z,100685.63
2018-04-14T23:24:29.978Z,100687.81
2018-04-14T23:27:00.803Z,100687.05
2018-04-14T23:29:29.761Z,100686.61
2018-04-14T23:31:58.766Z,100687.34
2018-04-14T23:34:27.787Z,100688.41
2018-04-14T23:36:56.749Z,100690.86
2018-04-14T23:39:25.711Z,100681.70
2018-04-14T23:41:54.743Z,100678.08
2018-04-14T23:44:23.700Z,100672.33
2018-04-14T23:46:52.714Z,100679.22
2018-04-14T23:49:21.934Z,100681.02
2018-04-14T23:51:51.175Z,100685.41
2018-04-14T23:54:20.186Z,100686.35
2018-04-14T23:56:49.201Z,100685.98
2018-04-14T23:59:18.178Z,100687.70
